createdAt,value
2023-01-06T00:04:08.220Z,0.05
2023-01-06T00:09:09.769Z,0.00
2023-01-06T00:14:11.160Z,0.00
2023-01-06T00:19:13.101Z,0.10
2023-01-06T00:24:14.483Z,0.03
2023-01-06T00:29:15.853Z,0.00
2023-01-06T00:34:17.280Z,0.00
2023-01-06T00:39:18.750Z,0.00
2023-01-06T00:44:20.164Z,0.00
2023-01-06T00:49:21.593Z,0.00
2023-01-06T00:54:23.045Z,0.00
2023-01-06T00:59:25.108Z,0.10
2023-01-06T01:04:26.697Z,0.00
2023-01-06T01:09:29.624Z,0.00
2023-01-06T01:14:31.031Z,0.03
2023-01-06T01:19:32.533Z,0.00
2023-01-06T01:24:34.039Z,0.00
2023-01-06T01:29:35.434Z,0.10
2023-01-06T01:34:36.830Z,0.00
2023-01-06T01:39:38.259Z,0.03
2023-01-06T01:44:58.903Z,0.00
2023-01-06T01:50:25.699Z,0.00
2023-01-06T01:55:27.294Z,0.00
2023-01-06T02:00:28.816Z,0.10
2023-01-06T02:05:30.185Z,0.10
2023-01-06T02:10:31.642Z,0.10
2023-01-06T02:15:33.049Z,0.00
2023-01-06T02:20:55.554Z,0.00
2023-01-06T02:26:28.287Z,0.00
2023-01-06T02:32:10.619Z,0.00
2023-01-06T02:37:21.364Z,0.00
2023-01-06T02:42:29.625Z,0.00
2023-01-06T02:48:09.472Z,0.08
2023-01-06T02:53:21.343Z,0.00
2023-01-06T02:58:30.024Z,0.00
2023-01-06T03:03:33.697Z,0.00
2023-01-06T03:08:35.126Z,0.03
2023-01-06T03:13:50.370Z,0.10
2023-01-06T03:18:51.773Z,0.05
2023-01-06T03:23:53.149Z,0.00
2023-01-06T03:28:54.537Z,0.00
2023-01-06T03:34:18.010Z,0.00
2023-01-06T03:39:41.272Z,0.00
2023-01-06T03:44:52.029Z,0.00
2023-01-06T03:50:04.759Z,0.05
2023-01-06T03:55:08.331Z,0.00
2023-01-06T04:00:16.496Z,0.00
2023-01-06T04:05:20.082Z,0.00
2023-01-06T04:10:22.063Z,0.00
2023-01-06T04:15:24.939Z,0.00
2023-01-06T04:20:27.986Z,0.10
2023-01-06T04:25:29.365Z,0.00
2023-01-06T04:30:30.761Z,0.00
2023-01-06T04:35:32.141Z,0.00
2023-01-06T04:40:33.548Z,0.05
2023-01-06T04:45:35.124Z,0.03
2023-01-06T04:50:36.883Z,0.05
2023-01-06T04:55:39.057Z,0.05
2023-01-06T05:00:40.519Z,0.00
2023-01-06T05:05:41.933Z,0.00
2023-01-06T05:10:43.334Z,0.00
2023-01-06T05:15:44.793Z,0.00
2023-01-06T05:20:50.358Z,0.10
2023-01-06T05:25:54.619Z,0.00
2023-01-06T05:31:00.473Z,0.13
2023-01-06T05:36:03.360Z,0.00
2023-01-06T05:41:04.813Z,0.10
2023-01-06T05:46:07.279Z,0.10
2023-01-06T05:51:12.750Z,0.00
2023-01-06T05:56:16.476Z,0.00
2023-01-06T06:01:22.993Z,0.10
2023-01-06T06:06:25.345Z,0.08
2023-01-06T06:11:26.737Z,0.00
2023-01-06T06:16:28.284Z,0.10
2023-01-06T06:21:30.228Z,0.00
2023-01-06T06:26:31.674Z,0.10
2023-01-06T06:31:33.097Z,0.10
2023-01-06T06:36:34.585Z,0.00
2023-01-06T06:41:35.977Z,0.00
2023-01-06T06:46:37.376Z,0.10
2023-01-06T06:51:38.790Z,0.00
2023-01-06T06:56:40.168Z,0.10
2023-01-06T07:01:41.616Z,0.10
2023-01-06T07:06:43.023Z,0.10
2023-01-06T07:11:44.400Z,0.20
2023-01-06T07:16:45.786Z,0.10
2023-01-06T07:21:47.175Z,0.20
2023-01-06T07:26:48.606Z,0.50
2023-01-06T07:31:49.997Z,0.75
2023-01-06T07:36:51.370Z,3.70
2023-01-06T07:41:52.751Z,2.60
2023-01-06T07:46:54.438Z,2.00
2023-01-06T07:51:56.069Z,2.28
2023-01-06T07:56:57.471Z,2.03
2023-01-06T08:01:58.979Z,1.23
2023-01-06T08:07:01.096Z,1.08
2023-01-06T08:12:02.480Z,0.60
2023-01-06T08:17:03.868Z,0.60
2023-01-06T08:22:05.244Z,0.68
2023-01-06T08:27:06.621Z,0.57
2023-01-06T08:32:10.913Z,0.60
2023-01-06T08:37:12.444Z,0.40
2023-01-06T08:42:13.828Z,0.50
2023-01-06T08:47:15.231Z,0.30
2023-01-06T08:52:16.662Z,0.30
2023-01-06T08:57:18.068Z,1.30
2023-01-06T09:02:19.503Z,1.23
2023-01-06T09:07:20.884Z,0.77
2023-01-06T09:12:22.337Z,1.17
2023-01-06T09:17:23.790Z,1.20
2023-01-06T09:22:25.171Z,0.70
2023-01-06T09:27:26.591Z,0.80
2023-01-06T09:32:27.973Z,0.60
2023-01-06T09:37:29.391Z,0.50
2023-01-06T09:42:40.054Z,0.60
2023-01-06T09:47:44.571Z,0.47
2023-01-06T09:52:48.990Z,0.52
2023-01-06T09:57:52.262Z,0.30
2023-01-06T10:02:53.697Z,0.40
2023-01-06T10:08:13.073Z,0.10
2023-01-06T10:13:20.271Z,0.50
2023-01-06T10:18:32.767Z,6.28
2023-01-06T10:23:55.818Z,16.42
2023-01-06T10:29:04.258Z,20.00
2023-01-06T10:34:05.714Z,15.40
2023-01-06T10:39:13.289Z,14.63
2023-01-06T10:44:14.671Z,9.88
2023-01-06T10:49:17.595Z,8.77
2023-01-06T10:54:22.091Z,7.35
2023-01-06T10:59:23.504Z,6.88
2023-01-06T11:04:26.272Z,5.22
2023-01-06T11:09:41.135Z,4.15
2023-01-06T11:14:42.534Z,3.97
2023-01-06T11:19:44.935Z,2.75
2023-01-06T11:24:52.843Z,2.63
2023-01-06T11:29:54.410Z,15.38
2023-01-06T11:35:00.516Z,20.30
2023-01-06T11:40:19.393Z,23.13
2023-01-06T11:45:37.431Z,23.75
2023-01-06T11:50:38.868Z,24.73
2023-01-06T11:55:40.299Z,27.83
2023-01-06T12:00:51.663Z,22.30
2023-01-06T12:06:09.253Z,19.65
2023-01-06T12:11:42.516Z,13.82
2023-01-06T12:17:10.243Z,12.57
2023-01-06T12:22:43.414Z,9.68
2023-01-06T12:27:58.378Z,15.23
2023-01-06T12:33:03.287Z,13.07
2023-01-06T12:38:15.410Z,8.87
2023-01-06T12:43:17.948Z,10.02
2023-01-06T12:48:36.339Z,7.90
2023-01-06T12:53:45.918Z,7.45
2023-01-06T12:59:09.518Z,6.43
2023-01-06T13:04:35.916Z,5.40
2023-01-06T13:09:58.975Z,4.05
2023-01-06T13:15:04.980Z,3.00
2023-01-06T13:20:08.338Z,2.45
2023-01-06T13:25:20.666Z,2.00
2023-01-06T13:30:39.012Z,1.73
2023-01-06T13:35:54.542Z,1.67
2023-01-06T13:46:06.160Z,1.02
2023-01-06T13:51:09.537Z,0.70
2023-01-06T13:56:13.796Z,0.77
2023-01-06T14:01:21.280Z,0.70
2023-01-06T14:06:22.544Z,5.22
2023-01-06T14:11:34.960Z,5.97
2023-01-06T14:16:40.097Z,4.68
2023-01-06T14:21:41.523Z,3.33
2023-01-06T14:27:01.228Z,2.60
2023-01-06T14:32:02.906Z,1.02
2023-01-06T14:37:05.050Z,0.50
2023-01-06T14:42:29.688Z,0.65
2023-01-06T14:47:33.742Z,0.40
2023-01-06T14:52:38.636Z,0.30
2023-01-06T14:57:42.223Z,0.30
2023-01-06T15:02:48.339Z,0.25
2023-01-06T15:08:16.759Z,1.00
2023-01-06T15:13:28.739Z,0.52
2023-01-06T15:18:30.411Z,0.40
2023-01-06T15:23:31.783Z,7.93
2023-01-06T15:28:34.053Z,10.35
2023-01-06T15:33:39.835Z,10.63
2023-01-06T15:38:41.594Z,6.40
2023-01-06T15:43:44.477Z,5.10
2023-01-06T15:48:47.451Z,4.32
2023-01-06T15:53:53.807Z,6.50
2023-01-06T15:58:55.725Z,4.40
2023-01-06T16:03:58.370Z,3.28
2023-01-06T16:09:35.453Z,2.83
2023-01-06T16:14:43.695Z,2.45
2023-01-06T16:20:00.322Z,1.67
2023-01-06T16:25:04.220Z,1.38
2023-01-06T16:30:09.730Z,1.38
2023-01-06T16:35:12.117Z,1.05
2023-01-06T16:40:14.221Z,0.90
2023-01-06T16:45:31.088Z,0.57
2023-01-06T16:50:34.011Z,0.57
2023-01-06T16:55:35.850Z,0.50
2023-01-06T17:00:39.002Z,0.70
2023-01-06T17:05:41.300Z,0.50
2023-01-06T17:10:43.110Z,0.47
2023-01-06T17:15:44.569Z,0.20
2023-01-06T17:20:45.966Z,0.30
2023-01-06T17:25:47.395Z,0.20
2023-01-06T17:30:48.789Z,0.30
2023-01-06T17:35:52.484Z,0.10
2023-01-06T17:40:54.803Z,0.20
2023-01-06T17:45:56.312Z,0.20
2023-01-06T17:50:58.914Z,0.20
2023-01-06T17:56:05.435Z,0.10
2023-01-06T18:01:08.541Z,0.10
2023-01-06T18:06:18.857Z,0.10
2023-01-06T18:11:39.462Z,0.10
2023-01-06T18:16:41.021Z,0.13
2023-01-06T18:21:42.466Z,0.10
2023-01-06T18:26:49.064Z,0.00
2023-01-06T18:31:51.285Z,0.10
2023-01-06T18:36:53.789Z,0.10
2023-01-06T18:42:22.067Z,0.10
2023-01-06T18:47:23.509Z,0.20
2023-01-06T18:52:39.591Z,0.20
2023-01-06T18:57:45.609Z,0.10
2023-01-06T19:02:50.179Z,0.00
2023-01-06T19:07:51.850Z,0.10
2023-01-06T19:12:56.585Z,0.20
2023-01-06T19:17:58.015Z,0.03
2023-01-06T19:22:59.418Z,0.10
2023-01-06T19:28:04.169Z,0.10
2023-01-06T19:33:25.513Z,0.10
2023-01-06T19:38:31.239Z,0.00
2023-01-06T19:48:38.167Z,0.20
2023-01-06T19:53:44.039Z,0.10
2023-01-06T19:58:59.728Z,0.15
2023-01-06T20:04:01.109Z,0.10
2023-01-06T20:09:02.540Z,0.10
2023-01-06T20:14:03.980Z,0.00
2023-01-06T20:19:05.441Z,0.10
2023-01-06T20:24:07.553Z,0.10
2023-01-06T20:29:08.974Z,0.00
2023-01-06T20:34:10.421Z,0.10
2023-01-06T20:39:14.875Z,0.10
2023-01-06T20:44:16.286Z,0.10
2023-01-06T20:49:20.348Z,0.10
2023-01-06T20:54:21.767Z,0.10
2023-01-06T20:59:23.492Z,0.10
2023-01-06T21:04:24.863Z,0.10
2023-01-06T21:09:28.228Z,0.10
2023-01-06T21:14:30.703Z,0.10
2023-01-06T21:19:32.100Z,0.10
2023-01-06T21:24:33.561Z,0.10
2023-01-06T21:29:35.119Z,0.10
2023-01-06T21:34:36.516Z,0.20
2023-01-06T21:39:37.891Z,0.17
2023-01-06T21:44:39.280Z,0.10
2023-01-06T21:49:46.642Z,0.20
2023-01-06T21:54:48.051Z,0.05
2023-01-06T21:59:49.425Z,0.10
2023-01-06T22:04:52.446Z,0.10
2023-01-06T22:09:54.010Z,0.00
2023-01-06T22:14:56.779Z,0.10
2023-01-06T22:19:58.187Z,0.17
2023-01-06T22:24:59.583Z,0.10
2023-01-06T22:30:00.962Z,0.10
2023-01-06T22:35:02.352Z,0.03
2023-01-06T22:40:04.027Z,0.10
2023-01-06T22:45:06.070Z,0.00
2023-01-06T22:50:08.078Z,0.00
2023-01-06T22:55:09.591Z,0.10
2023-01-06T23:00:13.922Z,0.10
2023-01-06T23:05:15.414Z,0.00
2023-01-06T23:10:16.861Z,0.05
2023-01-06T23:15:18.344Z,0.10
2023-01-06T23:20:19.751Z,0.00
2023-01-06T23:25:21.131Z,0.00
2023-01-06T23:30:22.506Z,0.10
2023-01-06T23:35:24.023Z,0.00
2023-01-06T23:40:25.395Z,0.00
2023-01-06T23:45:26.788Z,0.00
2023-01-06T23:50:28.172Z,0.00
2023-01-06T23:55:29.547Z,0.10
